Time;durP1;ratioP1;P1;durP2;ratioP2;P2;SDS_P1;SDS_P2;PMS_P1;PMS_P2;Temp;Humidity;BMP_temperature;BMP_pressure;BME280_temperature;BME280_humidity;BME280_pressure;Samples;Min_cycle;Max_cycle;Signal;HPM_P1;HPM_P2
2022/07/20 00:00:41;;;;;;;4.70;2.10;;;;;;;14.75;77.92;99370.16;104053;1284;63085;-25
2022/07/20 00:03:11;;;;;;;2.50;1.70;;;;;;;14.54;78.67;99368.48;104069;1284;61116;-25
2022/07/20 00:05:39;;;;;;;1.80;1.60;;;;;;;14.99;78.22;99367.59;104252;1284;75739;-24
2022/07/20 00:08:07;;;;;;;3.20;2.20;;;;;;;15.51;77.05;99362.99;104145;1284;75825;-25
2022/07/20 00:13:22;;;;;;;3.00;2.30;;;;;;;15.28;76.43;99359.98;104136;1286;62128;-25
2022/07/20 00:15:49;;;;;;;2.80;2.50;;;;;;;14.98;76.54;99356.01;104131;1284;61214;-25
2022/07/20 00:18:18;;;;;;;3.60;2.70;;;;;;;14.69;77.46;99355.55;104366;1284;75519;-25
2022/07/20 00:20:45;;;;;;;2.80;1.80;;;;;;;14.48;78.39;99348.73;104121;1284;74926;-25
2022/07/20 00:23:14;;;;;;;4.80;2.00;;;;;;;14.90;78.37;99353.09;104278;1284;74578;-25
2022/07/20 00:25:42;;;;;;;3.50;2.30;;;;;;;15.40;77.06;99348.71;104348;1284;62824;-25
2022/07/20 00:28:10;;;;;;;3.20;2.30;;;;;;;15.43;76.62;99345.92;104455;1282;61094;-25
2022/07/20 00:30:37;;;;;;;3.70;3.10;;;;;;;15.24;76.72;99346.16;104507;1281;75590;-25
2022/07/20 00:33:04;;;;;;;3.60;2.90;;;;;;;15.00;77.23;99344.95;104533;1281;76744;-26
2022/07/20 00:35:34;;;;;;;3.90;3.10;;;;;;;14.75;78.07;99353.58;104258;1281;75215;-25
2022/07/20 00:38:01;;;;;;;3.60;2.10;;;;;;;14.57;78.78;99353.87;104269;1281;64938;-25
2022/07/20 00:40:28;;;;;;;3.00;2.00;;;;;;;14.99;78.93;99352.20;104391;1281;61750;-25
2022/07/20 00:42:56;;;;;;;3.80;2.80;;;;;;;15.49;76.85;99350.44;104449;1281;75742;-25
2022/07/20 00:45:23;;;;;;;2.80;2.50;;;;;;;15.53;76.57;99346.05;104549;1281;77159;-25
2022/07/20 00:47:51;;;;;;;6.20;2.60;;;;;;;15.34;76.25;99347.83;104549;1281;75174;-25
2022/07/20 00:50:19;;;;;;;7.50;3.00;;;;;;;15.10;76.41;99347.33;104325;1281;61227;-25
2022/07/20 00:52:46;;;;;;;4.80;3.00;;;;;;;14.85;76.66;99347.30;104264;1281;63020;-25
2022/07/20 00:55:13;;;;;;;4.50;2.20;;;;;;;14.63;77.58;99348.70;104195;1281;73659;-25
2022/07/20 00:57:41;;;;;;;2.90;1.80;;;;;;;15.03;77.24;99346.81;104215;1281;76997;-25
2022/07/20 01:00:09;;;;;;;3.20;2.30;;;;;;;15.48;74.89;99343.91;104194;1281;75651;-26
2022/07/20 01:02:38;;;;;;;3.50;2.70;;;;;;;15.46;74.63;99343.52;104498;1281;62864;-25
2022/07/20 01:05:13;;;;;;;5.20;3.40;;;;;;;15.21;75.85;99343.28;104595;1281;61863;-25
2022/07/20 01:07:48;;;;;;;3.60;2.90;;;;;;;14.91;76.91;99344.40;104343;1281;74518;-25
2022/07/20 01:10:16;;;;;;;6.40;3.60;;;;;;;14.65;77.76;99339.53;104190;1281;77135;-25
2022/07/20 01:12:45;;;;;;;5.50;2.90;;;;;;;14.43;78.47;99337.52;104053;1283;73327;-26
2022/07/20 01:15:12;;;;;;;3.90;2.70;;;;;;;14.82;78.49;99335.27;104441;1281;61904;-25
2022/07/20 01:17:40;;;;;;;5.10;2.70;;;;;;;15.33;77.01;99330.88;104365;1281;61655;-25
2022/07/20 01:20:16;;;;;;;4.60;3.10;;;;;;;15.35;76.84;99330.10;104385;1281;75745;-24
2022/07/20 01:22:44;;;;;;;6.00;3.70;;;;;;;15.12;76.74;99326.89;104424;1281;77366;-25
2022/07/20 01:25:12;;;;;;;6.30;3.60;;;;;;;14.84;77.69;99328.98;104308;1281;75384;-26
2022/07/20 01:27:40;;;;;;;5.50;4.10;;;;;;;14.58;78.50;99330.66;104509;1281;61035;-25
2022/07/20 01:30:10;;;;;;;6.10;3.10;;;;;;;14.38;78.86;99329.91;104607;1281;61127;-25
2022/07/20 01:32:37;;;;;;;3.80;2.80;;;;;;;14.79;78.84;99328.21;104464;1281;75632;-25
2022/07/20 01:35:05;;;;;;;6.20;3.30;;;;;;;15.29;77.53;99322.95;104236;1281;75827;-25
2022/07/20 01:37:32;;;;;;;5.10;3.50;;;;;;;15.35;76.96;99324.70;104338;1281;75488;-25
2022/07/20 01:40:02;;;;;;;6.40;3.50;;;;;;;15.16;76.84;99322.34;104453;1281;63401;-24
2022/07/20 01:42:30;;;;;;;4.70;3.80;;;;;;;14.87;77.03;99325.77;103863;1282;63312;-25
2022/07/20 01:44:57;;;;;;;5.70;3.40;;;;;;;14.58;77.00;99322.50;104421;1281;74751;-25
2022/07/20 01:47:25;;;;;;;2.60;1.80;;;;;;;14.24;76.87;99316.85;104430;1281;76976;-25
2022/07/20 01:49:52;;;;;;;5.30;2.60;;;;;;;14.54;77.47;99313.75;104497;1281;73294;-25
2022/07/20 01:52:20;;;;;;;9.30;3.20;;;;;;;14.98;77.27;99311.09;104591;1281;62435;-26
2022/07/20 01:54:47;;;;;;;5.80;3.90;;;;;;;14.97;77.14;99313.27;104479;1281;61162;-25
2022/07/20 01:57:14;;;;;;;5.00;3.20;;;;;;;14.76;77.29;99315.27;104478;1280;75716;-25
2022/07/20 01:59:42;;;;;;;4.50;3.50;;;;;;;14.52;77.33;99315.70;104556;1281;76941;-25
2022/07/20 02:02:09;;;;;;;3.90;2.80;;;;;;;14.29;78.28;99312.93;104444;1282;75401;-25
2022/07/20 02:04:37;;;;;;;4.50;3.00;;;;;;;14.59;78.91;99309.68;104455;1280;61157;-25
2022/07/20 02:07:04;;;;;;;4.10;3.10;;;;;;;15.03;77.68;99314.98;104530;1281;63078;-25
2022/07/20 02:09:32;;;;;;;5.00;3.70;;;;;;;15.03;77.27;99309.05;104478;1281;75720;-25
2022/07/20 02:11:59;;;;;;;4.60;3.40;;;;;;;14.81;76.97;99307.40;104531;1280;76764;-25
2022/07/20 02:14:26;;;;;;;5.40;4.10;;;;;;;14.53;77.52;99309.14;104434;1280;74127;-25
2022/07/20 02:16:55;;;;;;;3.40;2.80;;;;;;;14.28;78.13;99305.65;104348;1280;61250;-25
2022/07/20 02:19:22;;;;;;;6.50;3.00;;;;;;;14.61;78.06;99306.83;104162;1280;62904;-25
2022/07/20 02:21:50;;;;;;;4.60;3.60;;;;;;;15.05;76.79;99306.39;104229;1281;75549;-25
2022/07/20 02:24:17;;;;;;;4.90;3.50;;;;;;;15.04;76.72;99307.17;104219;1280;76946;-25
2022/07/20 02:26:45;;;;;;;5.60;3.80;;;;;;;14.82;76.89;99308.88;104233;1281;75441;-25
2022/07/20 02:29:12;;;;;;;5.10;4.20;;;;;;;14.56;77.13;99313.80;104346;1281;62911;-25
2022/07/20 02:31:40;;;;;;;6.50;3.80;;;;;;;14.27;77.76;99311.00;104395;1281;61205;-25
2022/07/20 02:34:07;;;;;;;5.90;2.60;;;;;;;14.06;78.29;99307.76;104443;1281;76027;-25
2022/07/20 02:36:35;;;;;;;3.00;2.70;;;;;;;14.44;78.08;99308.21;104438;1281;75227;-25
2022/07/20 02:39:03;;;;;;;4.00;3.00;;;;;;;14.94;76.95;99308.45;104544;1281;75408;-25
2022/07/20 02:41:32;;;;;;;3.70;3.10;;;;;;;14.99;75.96;99311.87;104467;1281;63263;-25
2022/07/20 02:44:00;;;;;;;8.10;4.10;;;;;;;14.79;76.19;99308.34;104450;1281;63028;-25
2022/07/20 02:46:28;;;;;;;4.10;3.30;;;;;;;14.58;76.94;99309.91;104499;1281;75755;-26
2022/07/20 02:48:55;;;;;;;5.70;3.90;;;;;;;14.36;76.93;99308.78;104460;1283;76335;-25
2022/07/20 02:51:23;;;;;;;3.50;2.40;;;;;;;14.29;77.22;99313.94;104472;1281;75238;-25
2022/07/20 02:53:50;;;;;;;4.70;2.60;;;;;;;14.87;77.10;99315.62;104306;1281;61139;-25
2022/07/20 02:56:17;;;;;;;3.30;2.60;;;;;;;15.61;75.11;99309.40;104520;1281;61874;-25
2022/07/20 02:58:45;;;;;;;5.50;2.70;;;;;;;15.89;73.80;99306.69;104564;1278;74741;-25
2022/07/20 03:01:13;;;;;;;4.20;3.10;;;;;;;15.89;73.46;99308.96;104574;1281;77000;-25
2022/07/20 03:03:40;;;;;;;3.00;2.70;;;;;;;15.81;73.40;99310.29;104551;1278;74130;-25
2022/07/20 03:06:07;;;;;;;8.00;3.20;;;;;;;15.76;73.50;99303.38;104577;1278;63064;-25
2022/07/20 03:08:35;;;;;;;2.80;2.10;;;;;;;15.77;73.24;99302.08;104320;1278;61814;-24
2022/07/20 03:11:02;;;;;;;4.00;2.50;;;;;;;16.34;72.74;99300.92;104405;1278;76571;-25
2022/07/20 03:13:30;;;;;;;2.60;2.10;;;;;;;17.00;70.02;99302.28;104571;1281;77027;-26
2022/07/20 03:15:58;;;;;;;4.20;2.40;;;;;;;17.20;68.64;99305.38;104485;1277;75141;-25
2022/07/20 03:18:26;;;;;;;5.00;2.90;;;;;;;17.16;69.39;99304.88;104283;1280;63025;-25
2022/07/20 03:20:53;;;;;;;4.30;2.60;;;;;;;17.07;69.21;99307.88;104633;1277;61772;-25
2022/07/20 03:23:20;;;;;;;4.50;2.60;;;;;;;17.02;68.96;99308.81;104519;1277;76265;-25
2022/07/20 03:25:48;;;;;;;3.90;2.60;;;;;;;17.00;68.98;99309.84;104340;1278;75783;-25
2022/07/20 03:28:18;;;;;;;3.40;2.00;;;;;;;17.02;69.25;99307.56;104381;1278;75460;-25
2022/07/20 03:30:45;;;;;;;2.40;1.80;;;;;;;17.66;68.89;99313.98;104501;1279;63009;-26
2022/07/20 03:33:12;;;;;;;4.50;2.50;;;;;;;18.47;66.52;99318.50;104566;1278;61053;-26
2022/07/20 03:35:40;;;;;;;6.50;2.50;;;;;;;18.81;65.19;99324.07;104598;1278;76519;-23
2022/07/20 03:38:07;;;;;;;4.90;2.40;;;;;;;18.85;64.72;99322.14;104588;1278;76734;-23
2022/07/20 03:40:35;;;;;;;4.10;2.40;;;;;;;18.88;64.56;99318.40;104542;1278;75436;-23
2022/07/20 03:43:02;;;;;;;3.90;2.60;;;;;;;18.86;64.49;99319.30;104552;1277;63072;-23
2022/07/20 03:45:32;;;;;;;3.10;2.40;;;;;;;18.79;64.85;99319.40;104483;1278;61677;-25
2022/07/20 03:47:59;;;;;;;6.00;3.00;;;;;;;18.75;65.05;99314.34;104567;1278;75054;-25
2022/07/20 03:50:27;;;;;;;3.30;2.80;;;;;;;18.71;65.20;99312.55;104566;1278;76780;-23
2022/07/20 03:52:55;;;;;;;3.00;2.40;;;;;;;18.65;65.97;99313.88;104272;1278;75369;-25
2022/07/20 03:55:22;;;;;;;4.90;2.50;;;;;;;18.97;64.82;99309.03;104196;1281;62661;-26
2022/07/20 03:57:52;;;;;;;3.80;2.40;;;;;;;19.39;64.03;99304.14;104343;1281;61807;-24
2022/07/20 04:00:19;;;;;;;5.50;2.70;;;;;;;19.48;63.92;99296.17;104475;1281;76608;-25
2022/07/20 04:02:48;;;;;;;5.40;3.10;;;;;;;19.47;64.95;99298.58;104265;1280;76072;-25
2022/07/20 04:05:16;;;;;;;2.80;2.50;;;;;;;19.46;65.35;99296.35;104186;1281;73754;-25
2022/07/20 04:07:43;;;;;;;4.50;2.70;;;;;;;19.45;64.86;99294.77;104232;1281;62988;-25
2022/07/20 04:10:11;;;;;;;5.30;2.70;;;;;;;19.37;65.08;99297.39;104253;1281;63334;-25
2022/07/20 04:12:38;;;;;;;4.30;2.80;;;;;;;19.41;64.77;99294.61;104407;1281;76749;-25
2022/07/20 04:15:06;;;;;;;3.50;2.70;;;;;;;19.48;64.49;99294.88;104602;1280;77030;-25
2022/07/20 04:17:34;;;;;;;3.20;2.50;;;;;;;19.54;64.02;99299.72;104470;1281;75190;-25
2022/07/20 04:20:03;;;;;;;4.70;2.70;;;;;;;19.53;64.61;99302.07;104531;1281;61958;-25
2022/07/20 04:22:31;;;;;;;3.30;2.10;;;;;;;19.58;65.72;99302.27;104550;1280;63042;-25
2022/07/20 04:24:58;;;;;;;5.60;2.60;;;;;;;20.04;63.16;99299.59;104452;1281;76594;-25
2022/07/20 04:27:26;;;;;;;4.00;2.80;;;;;;;20.42;61.71;99295.45;104468;1280;75929;-25
2022/07/20 04:29:53;;;;;;;3.60;2.40;;;;;;;20.54;61.39;99294.79;104438;1281;75509;-25
2022/07/20 04:32:20;;;;;;;6.40;3.00;;;;;;;20.46;61.34;99292.21;104264;1280;61157;-25
2022/07/20 04:34:48;;;;;;;10.30;3.10;;;;;;;20.39;61.87;99285.40;104455;1281;62782;-25
2022/07/20 04:37:20;;;;;;;4.50;3.00;;;;;;;20.33;62.62;99285.40;104550;1280;76768;-25
2022/07/20 04:39:48;;;;;;;5.70;3.70;;;;;;;20.12;62.88;99290.52;104040;1281;77027;-25
2022/07/20 04:42:15;;;;;;;7.40;2.80;;;;;;;20.03;63.65;99290.48;104380;1280;75543;-24
2022/07/20 04:44:42;;;;;;;7.30;3.80;;;;;;;20.08;63.89;99288.55;104541;1280;63208;-25
2022/07/20 04:47:10;;;;;;;13.10;3.50;;;;;;;20.16;63.35;99287.95;104318;1280;61893;-25
2022/07/20 04:49:37;;;;;;;7.80;3.60;;;;;;;20.17;63.92;99283.98;104441;1281;76652;-25
2022/07/20 04:52:05;;;;;;;4.30;2.70;;;;;;;20.10;63.95;99283.91;104227;1280;75720;-25
2022/07/20 04:54:41;;;;;;;14.10;3.20;;;;;;;20.20;63.73;99281.86;104057;1277;75472;-25
2022/07/20 04:57:08;;;;;;;5.70;2.90;;;;;;;20.21;63.66;99277.92;104404;1281;61195;-25
2022/07/20 04:59:37;;;;;;;4.90;2.90;;;;;;;20.24;63.29;99275.64;104306;1280;63071;-25
2022/07/20 05:02:05;;;;;;;6.30;3.10;;;;;;;20.24;63.92;99274.52;104116;1281;76364;-25
2022/07/20 05:04:33;;;;;;;7.90;3.00;;;;;;;20.37;63.54;99275.35;104299;1280;75291;-25
2022/07/20 05:07:01;;;;;;;8.70;2.70;;;;;;;20.42;63.40;99270.80;104593;1278;75353;-25
2022/07/20 05:09:28;;;;;;;5.10;2.80;;;;;;;20.56;63.06;99269.34;104584;1278;62756;-25
2022/07/20 05:11:56;;;;;;;3.30;2.70;;;;;;;20.67;63.11;99270.36;104558;1278;63048;-25
2022/07/20 05:14:23;;;;;;;7.50;2.90;;;;;;;20.78;62.18;99271.15;104576;1278;76568;-25
2022/07/20 05:16:51;;;;;;;4.60;2.80;;;;;;;20.75;62.13;99258.73;104527;1277;76948;-25
2022/07/20 05:19:19;;;;;;;4.60;3.40;;;;;;;20.59;61.83;99258.52;104382;1278;74318;-25
2022/07/20 05:21:46;;;;;;;10.90;2.80;;;;;;;20.39;62.95;99258.50;104562;1277;62068;-25
2022/07/20 05:24:13;;;;;;;3.80;2.70;;;;;;;20.25;63.60;99253.95;104326;1278;61185;-25
2022/07/20 05:26:42;;;;;;;2.80;2.40;;;;;;;20.11;63.89;99248.05;104513;1277;76529;-25
2022/07/20 05:29:09;;;;;;;3.30;2.50;;;;;;;20.16;63.77;99244.59;104215;1277;76938;-25
2022/07/20 05:31:37;;;;;;;4.70;2.40;;;;;;;20.23;64.02;99242.80;104398;1278;75443;-25
2022/07/20 05:34:04;;;;;;;3.50;2.50;;;;;;;20.36;63.30;99238.86;104282;1278;62718;-25
2022/07/20 05:36:32;;;;;;;5.90;2.80;;;;;;;20.48;62.45;99236.08;104171;1280;61987;-25
2022/07/20 05:38:59;;;;;;;6.80;2.80;;;;;;;20.64;61.84;99236.63;104238;1278;75565;-25
2022/07/20 05:41:27;;;;;;;4.90;2.50;;;;;;;20.77;61.21;99237.04;104403;1278;75674;-25
2022/07/20 05:43:57;;;;;;;3.30;2.60;;;;;;;20.88;60.58;99236.55;104346;1278;74816;-25
2022/07/20 05:46:24;;;;;;;3.50;2.30;;;;;;;20.99;60.38;99235.23;104441;1277;63078;-25
2022/07/20 05:48:52;;;;;;;4.20;2.20;;;;;;;21.18;60.63;99237.65;104772;1271;61127;-25
2022/07/20 05:51:20;;;;;;;3.00;2.10;;;;;;;21.38;59.72;99237.90;104870;1271;75790;-25
2022/07/20 05:53:57;;;;;;;4.00;2.40;;;;;;;21.62;59.14;99236.85;104982;1271;76997;-25
2022/07/20 05:56:25;;;;;;;3.80;2.40;;;;;;;21.84;58.79;99237.86;105074;1271;73595;-25
2022/07/20 05:58:53;;;;;;;4.10;2.30;;;;;;;22.05;56.90;99234.81;104940;1271;61803;-25
2022/07/20 06:01:20;;;;;;;3.40;2.40;;;;;;;22.24;55.68;99233.92;104767;1272;63244;-23
2022/07/20 06:03:48;;;;;;;4.10;2.20;;;;;;;22.33;54.41;99230.61;105050;1271;75051;-23
2022/07/20 06:06:17;;;;;;;4.80;2.40;;;;;;;22.42;54.34;99227.16;104565;1274;76967;-23
2022/07/20 06:08:45;;;;;;;4.10;2.50;;;;;;;22.49;54.25;99224.31;104897;1271;75511;-23
2022/07/20 06:11:32;;;;;;;5.90;2.40;;;;;;;22.59;54.54;99218.81;104891;1271;62050;-23
2022/07/20 06:14:00;;;;;;;5.60;2.50;;;;;;;22.73;53.60;99209.98;104892;1271;61230;-23
2022/07/20 06:16:28;;;;;;;5.10;2.20;;;;;;;22.78;53.32;99210.90;104686;1271;75520;-23
2022/07/20 06:18:55;;;;;;;4.20;2.20;;;;;;;22.91;54.54;99208.65;104971;1270;75963;-24
2022/07/20 06:21:23;;;;;;;5.50;2.30;;;;;;;23.02;51.98;99195.63;105140;1271;75365;-23
2022/07/20 06:23:50;;;;;;;5.20;2.10;;;;;;;23.09;52.53;99201.75;105071;1271;61748;-23
2022/07/20 06:26:17;;;;;;;3.30;2.00;;;;;;;23.02;53.11;99196.12;105086;1274;62164;-23
2022/07/20 06:28:45;;;;;;;5.70;2.40;;;;;;;23.17;54.10;99196.79;105051;1271;76552;-23
2022/07/20 06:31:13;;;;;;;5.50;2.20;;;;;;;23.37;53.04;99195.05;104853;1271;77056;-25
2022/07/20 06:33:40;;;;;;;3.50;2.20;;;;;;;23.42;52.21;99191.36;104822;1271;74530;-26
2022/07/20 06:36:09;;;;;;;6.90;2.40;;;;;;;23.40;52.26;99190.51;104748;1271;61171;-25
2022/07/20 06:38:36;;;;;;;5.40;2.70;;;;;;;23.39;52.21;99188.10;105103;1271;62976;-25
2022/07/20 06:41:04;;;;;;;5.60;2.80;;;;;;;23.46;53.40;99182.55;104956;1271;76599;-25
2022/07/20 06:43:32;;;;;;;6.70;2.90;;;;;;;23.44;52.02;99176.84;105117;1271;76992;-25
2022/07/20 06:45:59;;;;;;;6.70;3.00;;;;;;;23.44;51.76;99174.02;104951;1271;74230;-26
2022/07/20 06:48:26;;;;;;;5.40;3.00;;;;;;;23.46;52.32;99169.55;104811;1271;61877;-25
2022/07/20 06:50:54;;;;;;;4.00;2.40;;;;;;;23.44;51.25;99167.69;105051;1271;62212;-25
2022/07/20 06:53:23;;;;;;;3.30;2.40;;;;;;;23.54;51.56;99170.29;104901;1271;75459;-24
2022/07/20 06:55:50;;;;;;;3.80;2.50;;;;;;;23.65;50.51;99170.43;104762;1271;75009;-25
2022/07/20 06:58:18;;;;;;;4.80;2.20;;;;;;;23.73;50.81;99162.77;104816;1274;75361;-25
2022/07/20 07:00:45;;;;;;;4.20;2.30;;;;;;;23.80;49.89;99153.67;105043;1271;61145;-25
2022/07/20 07:03:13;;;;;;;5.30;2.60;;;;;;;23.70;50.44;99153.86;105093;1274;63143;-25
2022/07/20 07:05:40;;;;;;;14.60;2.80;;;;;;;23.85;50.36;99155.83;105076;1271;75688;-25
2022/07/20 07:08:08;;;;;;;3.70;2.40;;;;;;;23.90;49.96;99148.60;104934;1274;76924;-25
2022/07/20 07:10:35;;;;;;;5.00;2.50;;;;;;;23.97;50.00;99148.92;104851;1274;74671;-25
2022/07/20 07:13:02;;;;;;;6.20;2.90;;;;;;;24.06;51.30;99148.24;104934;1271;61002;-24
2022/07/20 07:15:30;;;;;;;3.30;2.50;;;;;;;24.28;50.43;99145.48;104999;1271;62844;-24
2022/07/20 07:18:00;;;;;;;5.20;2.40;;;;;;;24.36;49.97;99139.02;105068;1273;76424;-24
2022/07/20 07:20:28;;;;;;;3.60;2.60;;;;;;;24.38;49.03;99133.77;104717;1275;77068;-25
2022/07/20 07:22:55;;;;;;;8.10;2.30;;;;;;;24.44;48.94;99135.25;105043;1274;75110;-25
2022/07/20 07:25:23;;;;;;;2.70;1.90;;;;;;;24.37;48.48;99128.73;104740;1271;61033;-25
2022/07/20 07:27:50;;;;;;;5.60;2.50;;;;;;;24.46;48.77;99127.49;104779;1271;63112;-25
2022/07/20 07:30:18;;;;;;;4.50;2.10;;;;;;;24.52;48.59;99129.02;104805;1271;76487;-25
2022/07/20 07:32:45;;;;;;;5.40;2.20;;;;;;;24.64;48.61;99130.90;104928;1274;74635;-25
2022/07/20 07:35:13;;;;;;;3.80;2.30;;;;;;;24.57;48.50;99125.17;104762;1274;75317;-25
2022/07/20 07:37:40;;;;;;;3.90;2.40;;;;;;;24.71;48.73;99126.89;105052;1272;63167;-25
2022/07/20 07:40:08;;;;;;;4.60;2.20;;;;;;;24.89;48.02;99120.95;104850;1271;61656;-25
2022/07/20 07:42:37;;;;;;;5.60;2.40;;;;;;;24.89;47.49;99118.66;104682;1271;75601;-25
2022/07/20 07:45:07;;;;;;;5.30;2.60;;;;;;;24.93;47.65;99112.20;105092;1274;75898;-25
2022/07/20 07:47:36;;;;;;;3.60;2.50;;;;;;;24.97;48.31;99113.72;104838;1271;74486;-25
2022/07/20 07:50:05;;;;;;;4.90;2.30;;;;;;;25.04;47.42;99109.07;105070;1274;62078;-25
2022/07/20 07:52:32;;;;;;;3.60;2.20;;;;;;;25.07;47.39;99108.08;104793;1274;62089;-25
2022/07/20 07:54:59;;;;;;;5.00;2.40;;;;;;;25.16;46.81;99101.66;105073;1271;75328;-25
2022/07/20 07:57:27;;;;;;;4.60;2.30;;;;;;;25.30;46.22;99100.80;104779;1271;76135;-25
2022/07/20 07:59:54;;;;;;;2.90;2.00;;;;;;;25.35;44.83;99101.06;104810;1271;74900;-25
2022/07/20 08:02:22;;;;;;;6.10;2.30;;;;;;;25.39;44.97;99100.17;104977;1271;61110;-23
2022/07/20 08:04:49;;;;;;;6.60;1.90;;;;;;;25.53;45.14;99097.79;104982;1272;61414;-24
2022/07/20 08:07:17;;;;;;;4.70;2.40;;;;;;;25.68;45.10;99095.81;105080;1271;76530;-24
2022/07/20 08:09:44;;;;;;;2.80;2.20;;;;;;;25.47;43.95;99088.59;105214;1271;76732;-24
2022/07/20 08:12:12;;;;;;;4.20;2.00;;;;;;;25.44;45.00;99097.06;105134;1271;75316;-24
2022/07/20 08:14:39;;;;;;;4.00;2.30;;;;;;;25.46;44.03;99086.98;104874;1271;62068;-24
2022/07/20 08:17:06;;;;;;;4.40;2.20;;;;;;;25.58;44.85;99088.15;104819;1271;61800;-24
2022/07/20 08:19:34;;;;;;;3.30;2.20;;;;;;;25.61;44.36;99082.81;104951;1271;76481;-24
2022/07/20 08:22:01;;;;;;;3.90;2.30;;;;;;;25.75;44.79;99082.98;105113;1271;77070;-24
2022/07/20 08:24:29;;;;;;;3.20;2.10;;;;;;;25.86;43.36;99068.73;104827;1271;74446;-24
2022/07/20 08:26:56;;;;;;;4.10;2.10;;;;;;;25.84;44.64;99081.84;104810;1274;62868;-24
2022/07/20 08:29:24;;;;;;;4.50;2.20;;;;;;;26.08;44.37;99077.50;104832;1271;62682;-24
2022/07/20 08:31:51;;;;;;;10.70;2.70;;;;;;;26.22;44.18;99075.50;104736;1271;76309;-23
2022/07/20 08:34:19;;;;;;;4.90;2.50;;;;;;;26.27;43.20;99063.80;104855;1271;76204;-25
2022/07/20 08:36:48;;;;;;;3.70;2.10;;;;;;;26.37;43.34;99063.34;104866;1271;74317;-24
2022/07/20 08:39:16;;;;;;;4.10;2.60;;;;;;;26.48;43.05;99056.99;105070;1271;63634;-24
2022/07/20 08:41:44;;;;;;;3.80;2.00;;;;;;;26.53;42.88;99049.75;105020;1271;62985;-24
2022/07/20 08:44:11;;;;;;;3.30;2.20;;;;;;;26.52;43.00;99050.16;104922;1271;76227;-24
2022/07/20 08:46:39;;;;;;;4.00;2.60;;;;;;;26.46;42.93;99042.59;105076;1271;76439;-24
2022/07/20 08:49:06;;;;;;;4.20;2.20;;;;;;;26.42;41.72;99033.48;104916;1271;75098;-24
2022/07/20 08:51:33;;;;;;;3.10;1.90;;;;;;;26.57;41.77;99029.76;104624;1271;63113;-24
2022/07/20 08:54:01;;;;;;;6.50;2.10;;;;;;;26.65;41.90;99029.91;105055;1271;61958;-24
2022/07/20 08:56:28;;;;;;;4.00;1.90;;;;;;;26.53;42.89;99029.90;105171;1271;76694;-23
2022/07/20 08:58:56;;;;;;;3.90;2.10;;;;;;;26.83;41.50;99030.00;105148;1271;75419;-23
2022/07/20 09:01:25;;;;;;;3.60;2.30;;;;;;;26.99;41.70;99024.90;105156;1271;75416;-24
2022/07/20 09:04:03;;;;;;;4.20;2.40;;;;;;;27.07;41.60;99025.63;105159;1271;61131;-24
2022/07/20 09:06:47;;;;;;;3.80;2.30;;;;;;;27.05;41.42;99023.71;104892;1271;61530;-25
2022/07/20 09:09:18;;;;;;;4.10;2.30;;;;;;;27.07;40.91;99019.11;105100;1271;76427;-25
2022/07/20 09:11:46;;;;;;;2.60;2.10;;;;;;;27.04;40.98;99009.20;104836;1272;76412;-24
2022/07/20 09:14:16;;;;;;;8.00;2.50;;;;;;;27.24;40.95;99008.24;105015;1271;75525;-24
2022/07/20 09:16:46;;;;;;;6.40;2.60;;;;;;;27.31;40.78;99007.16;104754;1271;62047;-24
2022/07/20 09:19:15;;;;;;;2.50;2.10;;;;;;;27.30;40.47;99000.65;105129;1271;63537;-24
2022/07/20 09:21:47;;;;;;;3.10;2.00;;;;;;;27.39;40.09;98995.96;104917;1271;76538;-24
2022/07/20 09:24:16;;;;;;;3.40;2.30;;;;;;;27.46;39.96;98994.77;105134;1271;76897;-24
2022/07/20 09:26:44;;;;;;;4.50;2.40;;;;;;;27.34;40.18;98986.66;104729;1271;75717;-24
2022/07/20 09:29:11;;;;;;;4.90;2.20;;;;;;;27.46;41.17;98987.57;105019;1271;62698;-24
2022/07/20 09:31:39;;;;;;;5.30;2.60;;;;;;;27.58;39.46;98969.32;104915;1271;61814;-25
2022/07/20 09:34:09;;;;;;;7.00;2.60;;;;;;;27.56;38.50;98974.59;104989;1271;76550;-24
2022/07/20 09:36:38;;;;;;;5.30;2.20;;;;;;;27.60;39.55;98967.02;104841;1271;77052;-25
2022/07/20 09:39:12;;;;;;;7.30;2.30;;;;;;;27.55;39.86;98958.85;104849;1272;74328;-24
2022/07/20 09:42:01;;;;;;;5.40;2.30;;;;;;;27.69;38.51;98951.27;104810;1271;61661;-24
2022/07/20 09:44:29;;;;;;;3.40;2.30;;;;;;;27.66;39.02;98955.17;104968;1271;61092;-24
2022/07/20 09:46:57;;;;;;;4.30;2.30;;;;;;;27.85;38.92;98947.58;104849;1271;74460;-24
2022/07/20 09:49:36;;;;;;;4.50;2.60;;;;;;;28.02;39.06;98948.01;104843;1271;77022;-24
2022/07/20 09:52:08;;;;;;;3.80;2.40;;;;;;;28.27;39.02;98948.27;104658;1271;73324;-24
2022/07/20 09:54:56;;;;;;;8.60;2.30;;;;;;;28.14;38.79;98934.15;104857;1271;63203;-24
2022/07/20 09:57:23;;;;;;;3.70;2.00;;;;;;;28.18;37.80;98940.88;104779;1271;63034;-24
2022/07/20 09:59:51;;;;;;;9.30;2.40;;;;;;;27.75;38.59;98944.67;104729;1272;76576;-24
2022/07/20 10:02:20;;;;;;;5.50;2.30;;;;;;;27.59;39.16;98945.84;104820;1271;76973;-24
2022/07/20 10:08:57;;;;;;;3.40;2.30;;;;;;;27.70;39.08;98929.60;105059;1273;63006;-24
2022/07/20 10:11:25;;;;;;;6.50;2.30;;;;;;;28.08;39.40;98932.06;105127;1271;63034;-24
2022/07/20 10:13:54;;;;;;;3.70;2.10;;;;;;;28.28;39.15;98930.56;104870;1271;76639;-24
2022/07/20 10:16:34;;;;;;;2.60;2.30;;;;;;;28.11;37.88;98916.38;105030;1271;76862;-24
2022/07/20 10:19:03;;;;;;;3.00;2.20;;;;;;;27.97;39.27;98918.48;104735;1271;74095;-25
2022/07/20 10:21:40;;;;;;;7.70;2.40;;;;;;;28.26;38.94;98912.82;104682;1271;62362;-24
2022/07/20 10:24:14;;;;;;;3.50;2.10;;;;;;;28.51;37.75;98890.36;104649;1271;61364;-24
2022/07/20 10:26:42;;;;;;;7.00;2.40;;;;;;;28.34;37.96;98888.58;104769;1271;76565;-23
2022/07/20 10:29:09;;;;;;;4.00;2.40;;;;;;;28.04;38.41;98891.16;104773;1274;76929;-23
2022/07/20 10:31:52;;;;;;;6.70;2.90;;;;;;;28.03;38.53;98895.87;104810;1271;75565;-23
2022/07/20 10:34:45;;;;;;;4.10;2.90;;;;;;;27.91;38.98;98884.74;104754;1271;62816;-23
2022/07/20 10:37:28;;;;;;;4.40;2.40;;;;;;;28.14;38.04;98871.05;104759;1271;61720;-25
2022/07/20 10:40:06;;;;;;;3.40;2.30;;;;;;;27.93;39.62;98885.37;104768;1271;75590;-23
2022/07/20 10:42:37;;;;;;;5.20;2.40;;;;;;;27.86;39.23;98873.55;104689;1271;76009;-23
2022/07/20 10:45:20;;;;;;;7.40;2.80;;;;;;;28.14;39.18;98866.92;104647;1271;75933;-23
2022/07/20 10:47:49;;;;;;;3.70;2.30;;;;;;;28.09;38.78;98854.64;104737;1271;62763;-23
2022/07/20 10:50:32;;;;;;;3.60;2.80;;;;;;;28.06;38.68;98866.31;104804;1271;61175;-23
2022/07/20 10:53:21;;;;;;;3.70;2.50;;;;;;;28.27;38.47;98867.21;104727;1271;76634;-24
2022/07/20 10:55:53;;;;;;;8.90;3.00;;;;;;;28.25;38.17;98859.80;104754;1272;76980;-24
2022/07/20 10:58:23;;;;;;;8.10;2.90;;;;;;;28.48;38.49;98860.33;104621;1274;72984;-24
2022/07/20 11:01:16;;;;;;;4.00;2.60;;;;;;;28.34;38.67;98861.48;104724;1271;62062;-23
2022/07/20 11:03:48;;;;;;;6.30;3.30;;;;;;;28.35;38.26;98843.77;104691;1274;62985;-24
2022/07/20 11:06:20;;;;;;;3.80;2.70;;;;;;;27.21;40.52;98864.96;104644;1271;75881;-23
2022/07/20 11:08:52;;;;;;;8.20;2.80;;;;;;;27.08;41.60;98872.81;104612;1274;75763;-24
2022/07/20 11:11:26;;;;;;;5.80;2.70;;;;;;;27.18;42.28;98870.27;104581;1273;376473;-23
2022/07/20 11:13:53;;;;;;;4.50;2.40;;;;;;;27.57;39.81;98859.17;104708;1271;61096;-24
2022/07/20 11:16:22;;;;;;;5.90;2.30;;;;;;;27.56;38.67;98847.33;104760;1271;62750;-23
2022/07/20 11:18:50;;;;;;;4.00;2.30;;;;;;;27.83;39.56;98846.15;104674;1271;75546;-23
2022/07/20 11:21:40;;;;;;;7.10;2.90;;;;;;;28.01;39.29;98849.52;104857;1271;76387;-24
2022/07/20 11:24:25;;;;;;;5.20;2.40;;;;;;;28.13;40.18;98848.08;104668;1271;75526;-23
2022/07/20 11:26:53;;;;;;;3.90;2.20;;;;;;;28.02;38.70;98824.34;104683;1274;62978;-23
2022/07/20 11:29:22;;;;;;;5.90;2.30;;;;;;;27.87;39.63;98834.23;104465;1271;61733;-24
2022/07/20 11:31:50;;;;;;;3.20;2.30;;;;;;;27.25;40.00;98844.54;104701;1271;76424;-23
2022/07/20 11:34:21;;;;;;;4.10;2.10;;;;;;;27.40;40.86;98843.89;104722;1271;75979;-23
2022/07/20 11:36:50;;;;;;;5.60;2.80;;;;;;;27.61;40.01;98824.20;104668;1274;75035;-23
2022/07/20 11:39:18;;;;;;;3.10;2.10;;;;;;;27.70;39.12;98821.84;104615;1274;61058;-23